Time;durP1;ratioP1;P1;durP2;ratioP2;P2;SDS_P1;SDS_P2;PMS_P1;PMS_P2;Temp;Humidity;BMP_temperature;BMP_pressure;BME280_temperature;BME280_humidity;BME280_pressure;Samples;Min_cycle;Max_cycle;Signal;HPM_P1;HPM_P2
2021/07/16 00:01:56;;;;;;;13.43;5.10;;;;;;;;;;5022291;28;20017;-42
2021/07/16 00:04:22;;;;;;;22.13;11.82;;;;;;;;;;5022047;28;20027;-43
2021/07/16 00:06:49;;;;;;;9.48;3.75;;;;;;;;;;5022214;28;20024;-43
2021/07/16 00:09:15;;;;;;;9.65;3.78;;;;;;;;;;5021761;28;20037;-42
2021/07/16 00:11:41;;;;;;;13.93;6.15;;;;;;;;;;5021308;28;20499;-42
2021/07/16 00:14:07;;;;;;;11.93;5.10;;;;;;;;;;5021802;28;20036;-42
2021/07/16 00:16:34;;;;;;;10.23;4.15;;;;;;;;;;5021452;28;20053;-42
2021/07/16 00:19:00;;;;;;;12.82;6.38;;;;;;;;;;5021778;28;20022;-42
2021/07/16 00:21:27;;;;;;;24.52;15.65;;;;;;;;;;5022791;28;20064;-42
2021/07/16 00:23:53;;;;;;;26.70;15.77;;;;;;;;;;5021568;28;20025;-42
2021/07/16 00:26:19;;;;;;;31.15;19.08;;;;;;;;;;5021474;28;20021;-42
2021/07/16 00:28:45;;;;;;;15.00;8.30;;;;;;;;;;5021354;28;20076;-42
2021/07/16 00:31:12;;;;;;;19.00;10.43;;;;;;;;;;5021864;28;20034;-42
2021/07/16 00:33:38;;;;;;;19.65;12.77;;;;;;;;;;5021865;28;20040;-42
2021/07/16 00:36:06;;;;;;;20.17;13.52;;;;;;;;;;5021611;28;20099;-42
2021/07/16 00:38:33;;;;;;;22.08;10.30;;;;;;;;;;5021683;28;20409;-42
2021/07/16 00:40:59;;;;;;;13.98;7.28;;;;;;;;;;5021499;28;20554;-42
2021/07/16 00:43:25;;;;;;;15.00;7.30;;;;;;;;;;5021470;28;20063;-42
2021/07/16 00:45:51;;;;;;;12.85;4.88;;;;;;;;;;5021135;28;20059;-42
2021/07/16 00:48:17;;;;;;;12.40;6.13;;;;;;;;;;5021351;28;20091;-42
2021/07/16 00:50:43;;;;;;;17.30;4.50;;;;;;;;;;5021330;28;20865;-42
2021/07/16 00:53:14;;;;;;;13.20;4.50;;;;;;;;;;5021500;28;20191;-43
2021/07/16 00:55:40;;;;;;;10.30;3.92;;;;;;;;;;5022180;28;20033;-41
2021/07/16 00:58:06;;;;;;;18.42;4.32;;;;;;;;;;5022326;28;20028;-41
2021/07/16 01:00:32;;;;;;;15.27;4.13;;;;;;;;;;5022520;28;20431;-42
2021/07/16 01:02:59;;;;;;;15.38;6.32;;;;;;;;;;5021350;28;20033;-42
2021/07/16 01:05:26;;;;;;;12.52;5.90;;;;;;;;;;5021178;28;20026;-42
2021/07/16 01:07:52;;;;;;;15.05;7.32;;;;;;;;;;5021297;28;20385;-41
2021/07/16 01:10:19;;;;;;;12.80;4.38;;;;;;;;;;5020837;28;20160;-41
2021/07/16 01:12:51;;;;;;;18.58;5.22;;;;;;;;;;5021134;28;20060;-41
2021/07/16 01:15:18;;;;;;;12.80;5.43;;;;;;;;;;5021953;28;20044;-43
2021/07/16 01:17:44;;;;;;;16.15;8.07;;;;;;;;;;5021087;28;20027;-43
2021/07/16 01:20:11;;;;;;;14.57;8.60;;;;;;;;;;5020942;28;20064;-44
2021/07/16 01:22:39;;;;;;;13.15;7.20;;;;;;;;;;5021112;28;20040;-44
2021/07/16 01:25:08;;;;;;;15.73;6.68;;;;;;;;;;5021044;28;20481;-45
2021/07/16 01:27:34;;;;;;;16.90;6.88;;;;;;;;;;5021738;28;20037;-44
2021/07/16 01:30:02;;;;;;;10.77;5.28;;;;;;;;;;5020973;28;20582;-44
2021/07/16 01:32:28;;;;;;;10.27;4.70;;;;;;;;;;5043436;28;20029;-44
2021/07/16 01:34:54;;;;;;;10.98;4.70;;;;;;;;;;5073148;28;20025;-44
2021/07/16 01:37:21;;;;;;;11.95;4.65;;;;;;;;;;5072996;28;20024;-42
2021/07/16 01:39:47;;;;;;;16.00;7.90;;;;;;;;;;5072780;28;20029;-43
2021/07/16 01:42:14;;;;;;;20.05;11.93;;;;;;;;;;5073092;28;20021;-43
2021/07/16 01:44:41;;;;;;;24.85;11.63;;;;;;;;;;5072677;28;20032;-42
2021/07/16 01:47:07;;;;;;;26.30;10.90;;;;;;;;;;5073297;28;20468;-44
2021/07/16 01:49:34;;;;;;;38.00;15.88;;;;;;;;;;5076735;28;20060;-44
2021/07/16 01:52:00;;;;;;;96.40;22.38;;;;;;;;;;5076750;28;20403;-44
2021/07/16 01:54:26;;;;;;;19.98;8.40;;;;;;;;;;5076345;28;20029;-44
2021/07/16 01:56:52;;;;;;;16.65;6.45;;;;;;;;;;5076543;28;20028;-43
2021/07/16 01:59:18;;;;;;;12.55;5.68;;;;;;;;;;5076411;28;20376;-44
2021/07/16 02:01:44;;;;;;;9.57;4.18;;;;;;;;;;5076472;28;20028;-44
2021/07/16 02:04:11;;;;;;;66.13;15.05;;;;;;;;;;5076327;28;20035;-44
2021/07/16 02:06:38;;;;;;;24.45;8.43;;;;;;;;;;5076434;28;20024;-44
2021/07/16 02:09:05;;;;;;;54.05;29.88;;;;;;;;;;5076147;28;20047;-42
2021/07/16 02:11:31;;;;;;;33.35;11.65;;;;;;;;;;5076379;28;20025;-43
2021/07/16 02:13:57;;;;;;;13.27;5.40;;;;;;;;;;5076353;28;20050;-45
2021/07/16 02:16:26;;;;;;;13.50;4.13;;;;;;;;;;5076197;28;20059;-42
2021/07/16 02:18:53;;;;;;;11.55;4.00;;;;;;;;;;5076473;28;20021;-43
2021/07/16 02:21:19;;;;;;;16.65;4.50;;;;;;;;;;5076150;28;20024;-44
2021/07/16 02:23:45;;;;;;;13.65;3.80;;;;;;;;;;5075902;28;20031;-44
2021/07/16 02:26:11;;;;;;;10.80;3.88;;;;;;;;;;5076241;28;20036;-42
2021/07/16 02:28:38;;;;;;;11.48;4.13;;;;;;;;;;5076003;28;20040;-43
2021/07/16 02:31:05;;;;;;;12.23;3.85;;;;;;;;;;5074795;28;20547;-43
2021/07/16 02:33:32;;;;;;;9.48;3.75;;;;;;;;;;5076155;28;20050;-44
2021/07/16 02:35:59;;;;;;;10.50;3.55;;;;;;;;;;5075988;28;20025;-44
2021/07/16 02:38:25;;;;;;;11.95;3.58;;;;;;;;;;5075882;28;20029;-43
2021/07/16 02:40:52;;;;;;;14.35;4.43;;;;;;;;;;5074379;28;20445;-43
2021/07/16 02:43:18;;;;;;;15.23;4.30;;;;;;;;;;5075858;28;20052;-44
2021/07/16 02:45:44;;;;;;;12.68;5.13;;;;;;;;;;5075688;28;20099;-43
2021/07/16 02:48:10;;;;;;;12.48;4.82;;;;;;;;;;5075841;28;20048;-43
2021/07/16 02:50:38;;;;;;;17.25;5.25;;;;;;;;;;5075835;28;20468;-43
2021/07/16 02:53:08;;;;;;;11.68;4.97;;;;;;;;;;5075524;28;20445;-44
2021/07/16 02:55:35;;;;;;;12.48;4.43;;;;;;;;;;5075463;28;20025;-43
2021/07/16 02:58:01;;;;;;;15.38;5.72;;;;;;;;;;5075497;28;20103;-44
2021/07/16 03:00:29;;;;;;;14.80;4.88;;;;;;;;;;5075627;28;20028;-44
2021/07/16 03:02:55;;;;;;;7.55;4.18;;;;;;;;;;5075731;28;20025;-44
2021/07/16 03:05:22;;;;;;;13.98;4.35;;;;;;;;;;5075406;28;20540;-44
2021/07/16 03:07:49;;;;;;;14.43;5.18;;;;;;;;;;5075364;28;20051;-44
2021/07/16 03:10:17;;;;;;;9.20;4.30;;;;;;;;;;5075105;28;20498;-44
2021/07/16 03:12:43;;;;;;;13.30;5.18;;;;;;;;;;5075244;28;20028;-44
2021/07/16 03:15:10;;;;;;;15.82;5.07;;;;;;;;;;5075266;28;20423;-44
2021/07/16 03:17:37;;;;;;;11.70;5.28;;;;;;;;;;5075180;28;20028;-44
2021/07/16 03:20:11;;;;;;;10.27;5.55;;;;;;;;;;5075214;28;20144;-44
2021/07/16 03:22:37;;;;;;;10.23;5.80;;;;;;;;;;5075133;28;20551;-45
2021/07/16 03:25:05;;;;;;;11.65;4.88;;;;;;;;;;5074901;28;20079;-44
2021/07/16 03:27:31;;;;;;;13.25;5.72;;;;;;;;;;5074964;28;20028;-44
2021/07/16 03:29:57;;;;;;;12.13;5.57;;;;;;;;;;5074975;28;20036;-44
2021/07/16 03:32:23;;;;;;;10.50;5.07;;;;;;;;;;5075026;28;20031;-43
2021/07/16 03:34:50;;;;;;;10.80;4.93;;;;;;;;;;5074792;28;20104;-43
2021/07/16 03:37:16;;;;;;;14.68;5.88;;;;;;;;;;5074839;28;20027;-44
2021/07/16 03:39:43;;;;;;;13.07;5.47;;;;;;;;;;5074629;28;20204;-44
2021/07/16 03:42:09;;;;;;;16.00;5.53;;;;;;;;;;5074985;28;20024;-43
2021/07/16 03:44:35;;;;;;;10.60;5.18;;;;;;;;;;5074717;28;20036;-45
2021/07/16 03:47:01;;;;;;;14.48;5.47;;;;;;;;;;5074447;28;20037;-44
2021/07/16 03:49:28;;;;;;;14.07;5.95;;;;;;;;;;5074387;28;20040;-44
2021/07/16 03:51:55;;;;;;;13.52;5.60;;;;;;;;;;5074461;28;20025;-44
2021/07/16 03:54:21;;;;;;;14.25;5.60;;;;;;;;;;5074371;28;20036;-45
2021/07/16 03:56:48;;;;;;;10.38;4.70;;;;;;;;;;5074225;28;20027;-45
2021/07/16 03:59:14;;;;;;;17.67;5.47;;;;;;;;;;5074168;28;20108;-44
2021/07/16 04:01:41;;;;;;;12.80;5.53;;;;;;;;;;5074257;28;20063;-44
2021/07/16 04:04:07;;;;;;;9.38;5.20;;;;;;;;;;5074085;28;20020;-44
2021/07/16 04:06:33;;;;;;;10.75;4.13;;;;;;;;;;5074241;28;20384;-44
2021/07/16 04:09:45;;;;;;;15.00;4.97;;;;;;;;;;5073909;28;20028;-44
2021/07/16 04:11:46;;;;;;;13.07;4.72;;;;;;;;;;5069876;28;20036;-45
2021/07/16 04:14:12;;;;;;;12.27;4.82;;;;;;;;;;5074086;28;20515;-43
2021/07/16 04:16:38;;;;;;;11.85;5.63;;;;;;;;;;5073990;28;20162;-44
2021/07/16 04:19:08;;;;;;;10.88;4.80;;;;;;;;;;5074450;28;20024;-43
2021/07/16 04:21:34;;;;;;;17.98;5.68;;;;;;;;;;5074062;28;20017;-44
2021/07/16 04:24:01;;;;;;;14.10;5.90;;;;;;;;;;5073905;28;20028;-45
2021/07/16 04:26:27;;;;;;;14.18;6.82;;;;;;;;;;5073764;28;20071;-48
2021/07/16 04:28:53;;;;;;;9.60;4.55;;;;;;;;;;5073737;28;20040;-45
2021/07/16 04:31:19;;;;;;;13.15;5.07;;;;;;;;;;5073861;28;20086;-45
2021/07/16 04:33:45;;;;;;;11.52;5.63;;;;;;;;;;5073697;28;20056;-44
2021/07/16 04:36:13;;;;;;;13.68;5.60;;;;;;;;;;5073512;28;20027;-44
2021/07/16 04:38:40;;;;;;;11.38;5.43;;;;;;;;;;5073807;28;20032;-44
2021/07/16 04:41:06;;;;;;;12.95;5.25;;;;;;;;;;5073860;28;20020;-42
2021/07/16 04:43:32;;;;;;;16.42;5.03;;;;;;;;;;5073711;28;20028;-44
2021/07/16 04:45:58;;;;;;;12.93;5.35;;;;;;;;;;5072222;28;20063;-44
2021/07/16 04:48:24;;;;;;;17.02;5.30;;;;;;;;;;5073350;28;20063;-44
2021/07/16 04:50:52;;;;;;;11.63;5.00;;;;;;;;;;5073449;28;20087;-45
2021/07/16 04:53:18;;;;;;;14.70;5.75;;;;;;;;;;5073614;28;20104;-44
2021/07/16 04:55:44;;;;;;;15.48;6.72;;;;;;;;;;5073463;28;20024;-44
2021/07/16 04:58:11;;;;;;;16.02;7.63;;;;;;;;;;5073488;28;20031;-43
2021/07/16 05:00:37;;;;;;;12.70;6.20;;;;;;;;;;5073441;28;20024;-43
2021/07/16 05:03:03;;;;;;;18.50;7.38;;;;;;;;;;5073441;28;20426;-43
2021/07/16 05:05:30;;;;;;;14.98;7.45;;;;;;;;;;5073208;28;20058;-44
2021/07/16 05:07:56;;;;;;;15.93;7.93;;;;;;;;;;5073195;28;20025;-43
2021/07/16 05:10:22;;;;;;;16.17;8.63;;;;;;;;;;5072991;28;20024;-45
2021/07/16 05:12:48;;;;;;;16.95;6.85;;;;;;;;;;5073450;28;20526;-42
2021/07/16 05:15:14;;;;;;;16.05;6.10;;;;;;;;;;5073072;28;20049;-44
2021/07/16 05:17:41;;;;;;;19.85;6.70;;;;;;;;;;5073267;28;20108;-44
2021/07/16 05:20:08;;;;;;;17.83;6.88;;;;;;;;;;5073144;28;20031;-44
2021/07/16 05:22:34;;;;;;;17.38;5.40;;;;;;;;;;5074446;28;20074;-43
2021/07/16 05:25:01;;;;;;;13.68;6.60;;;;;;;;;;5077322;28;20165;-43
2021/07/16 05:27:27;;;;;;;16.10;6.00;;;;;;;;;;5077313;28;20537;-44
2021/07/16 05:29:53;;;;;;;15.00;7.10;;;;;;;;;;5076911;28;20032;-44
2021/07/16 05:32:19;;;;;;;13.55;6.80;;;;;;;;;;5077093;28;20025;-43
2021/07/16 05:34:46;;;;;;;15.55;7.15;;;;;;;;;;5077107;28;20108;-43
2021/07/16 05:37:12;;;;;;;17.05;7.55;;;;;;;;;;5077015;28;20035;-43
2021/07/16 05:39:38;;;;;;;16.13;6.63;;;;;;;;;;5076954;28;20380;-43
2021/07/16 05:42:04;;;;;;;13.13;7.53;;;;;;;;;;5077107;28;20021;-43
2021/07/16 05:44:31;;;;;;;16.38;8.27;;;;;;;;;;5076771;28;20073;-43
2021/07/16 05:46:58;;;;;;;18.58;10.18;;;;;;;;;;5076983;28;20055;-45
2021/07/16 05:49:24;;;;;;;14.90;7.97;;;;;;;;;;5076743;28;20044;-43
2021/07/16 05:51:50;;;;;;;15.45;8.85;;;;;;;;;;5076790;28;20028;-43
2021/07/16 05:54:16;;;;;;;16.98;7.68;;;;;;;;;;5076697;28;20051;-43
2021/07/16 05:56:44;;;;;;;19.35;10.43;;;;;;;;;;5075415;28;20457;-43
2021/07/16 05:59:11;;;;;;;19.23;9.15;;;;;;;;;;5076696;28;20104;-44
2021/07/16 06:01:37;;;;;;;18.10;10.80;;;;;;;;;;5076619;28;20027;-43
2021/07/16 06:04:09;;;;;;;19.30;10.02;;;;;;;;;;5076997;28;20020;-43
2021/07/16 06:06:35;;;;;;;15.05;8.98;;;;;;;;;;5076224;28;20400;-43
2021/07/16 06:09:01;;;;;;;15.77;8.98;;;;;;;;;;5076532;28;20035;-43
2021/07/16 06:11:27;;;;;;;19.67;9.23;;;;;;;;;;5076543;28;20053;-43
2021/07/16 06:13:53;;;;;;;18.88;9.25;;;;;;;;;;5076653;28;20029;-43
2021/07/16 06:16:20;;;;;;;18.17;8.70;;;;;;;;;;5075357;28;20057;-43
2021/07/16 06:18:46;;;;;;;15.10;8.05;;;;;;;;;;5075156;28;20024;-43
2021/07/16 06:21:12;;;;;;;13.30;8.55;;;;;;;;;;5075024;28;20024;-43
2021/07/16 06:23:39;;;;;;;16.95;8.43;;;;;;;;;;5075068;28;20031;-43
2021/07/16 06:26:05;;;;;;;17.10;8.35;;;;;;;;;;5075234;28;20488;-43
2021/07/16 06:28:31;;;;;;;13.50;8.00;;;;;;;;;;5075292;28;20017;-42
2021/07/16 06:30:57;;;;;;;16.40;8.07;;;;;;;;;;5075271;28;20051;-44
2021/07/16 06:33:23;;;;;;;15.25;7.82;;;;;;;;;;5074696;28;20029;-42
2021/07/16 06:35:49;;;;;;;12.13;7.60;;;;;;;;;;5074772;28;20487;-44
2021/07/16 06:38:15;;;;;;;16.38;7.25;;;;;;;;;;5075001;28;20103;-43
2021/07/16 06:40:41;;;;;;;13.48;7.22;;;;;;;;;;5074964;28;20025;-42
2021/07/16 06:43:11;;;;;;;12.63;7.63;;;;;;;;;;5074974;28;20483;-43
2021/07/16 06:45:37;;;;;;;16.33;8.30;;;;;;;;;;5074567;28;20029;-43
2021/07/16 06:48:06;;;;;;;13.00;7.80;;;;;;;;;;5073331;28;20056;-42
2021/07/16 06:50:32;;;;;;;18.63;7.68;;;;;;;;;;5074557;28;20361;-43
2021/07/16 06:52:58;;;;;;;10.68;7.60;;;;;;;;;;5074732;28;20480;-43
2021/07/16 06:55:25;;;;;;;15.80;9.23;;;;;;;;;;5074468;28;20042;-43
2021/07/16 06:57:51;;;;;;;16.88;9.25;;;;;;;;;;5074583;28;20414;-43
2021/07/16 07:00:17;;;;;;;17.00;8.70;;;;;;;;;;5074470;28;20028;-43
2021/07/16 07:02:43;;;;;;;11.90;7.00;;;;;;;;;;5074341;28;20059;-43
2021/07/16 07:05:10;;;;;;;13.02;6.70;;;;;;;;;;5074336;28;20099;-43
2021/07/16 07:07:36;;;;;;;12.13;6.40;;;;;;;;;;5074202;28;20081;-43
2021/07/16 07:10:02;;;;;;;12.73;7.32;;;;;;;;;;5074400;28;20388;-43
2021/07/16 07:12:28;;;;;;;9.77;5.88;;;;;;;;;;5074325;28;20103;-43
2021/07/16 07:14:54;;;;;;;13.67;6.53;;;;;;;;;;5030171;28;1258064;-42
2021/07/16 07:17:21;;;;;;;14.32;6.13;;;;;;;;;;5075219;28;20032;-42
2021/07/16 07:19:47;;;;;;;12.25;5.93;;;;;;;;;;5075045;28;20033;-42
2021/07/16 07:22:13;;;;;;;9.35;5.95;;;;;;;;;;5075038;28;20025;-43
2021/07/16 07:24:39;;;;;;;8.80;6.03;;;;;;;;;;5075070;28;20415;-42
2021/07/16 07:27:05;;;;;;;6.75;5.82;;;;;;;;;;5074892;28;20081;-43
2021/07/16 07:29:33;;;;;;;14.57;6.38;;;;;;;;;;5074823;28;20032;-43
2021/07/16 07:31:59;;;;;;;9.45;5.50;;;;;;;;;;5074927;28;20078;-43
2021/07/16 07:34:25;;;;;;;8.93;6.35;;;;;;;;;;5075071;28;20035;-43
2021/07/16 07:36:52;;;;;;;11.15;6.57;;;;;;;;;;5074567;28;20020;-43
2021/07/16 07:39:18;;;;;;;12.70;6.18;;;;;;;;;;5074646;28;20021;-43
2021/07/16 07:41:47;;;;;;;9.18;5.72;;;;;;;;;;5074772;28;20354;-43
2021/07/16 07:44:14;;;;;;;16.13;6.75;;;;;;;;;;5074393;28;20464;-43
2021/07/16 07:46:41;;;;;;;13.13;6.25;;;;;;;;;;5073873;28;20028;-43
2021/07/16 07:49:10;;;;;;;12.75;6.43;;;;;;;;;;5074534;28;20029;-43
2021/07/16 07:51:37;;;;;;;8.60;6.20;;;;;;;;;;5074389;28;20077;-43
2021/07/16 07:54:03;;;;;;;12.18;6.47;;;;;;;;;;5071842;28;20086;-43
2021/07/16 07:56:31;;;;;;;12.15;6.38;;;;;;;;;;5053834;28;20396;-44
2021/07/16 07:58:59;;;;;;;11.55;6.60;;;;;;;;;;5052763;28;20479;-43
2021/07/16 08:01:25;;;;;;;14.40;6.32;;;;;;;;;;5053883;28;20047;-43
2021/07/16 08:03:51;;;;;;;7.90;5.25;;;;;;;;;;5053718;28;20048;-42
2021/07/16 08:06:17;;;;;;;12.02;6.50;;;;;;;;;;5053537;28;20021;-42
2021/07/16 08:08:44;;;;;;;9.43;6.22;;;;;;;;;;5053608;28;20024;-42
2021/07/16 08:11:10;;;;;;;13.80;5.30;;;;;;;;;;5053657;28;20407;-42
2021/07/16 08:13:36;;;;;;;11.35;6.10;;;;;;;;;;5053596;28;20495;-42
2021/07/16 08:16:02;;;;;;;10.18;5.43;;;;;;;;;;5053354;28;20053;-42
2021/07/16 08:18:29;;;;;;;7.72;5.57;;;;;;;;;;5053826;28;20115;-42
2021/07/16 08:20:56;;;;;;;10.25;5.40;;;;;;;;;;5052110;28;20029;-42
2021/07/16 08:23:22;;;;;;;15.07;6.20;;;;;;;;;;5053398;28;20036;-42
2021/07/16 08:25:48;;;;;;;12.07;5.90;;;;;;;;;;5053428;28;20100;-42
2021/07/16 08:28:14;;;;;;;12.30;5.75;;;;;;;;;;5053443;28;20025;-43
2021/07/16 08:30:41;;;;;;;9.75;5.47;;;;;;;;;;5053172;28;20477;-42
2021/07/16 08:33:07;;;;;;;13.55;6.80;;;;;;;;;;5053423;28;20017;-42
2021/07/16 08:35:33;;;;;;;10.05;5.75;;;;;;;;;;5050563;28;20045;-42
2021/07/16 08:37:59;;;;;;;7.70;5.63;;;;;;;;;;5053207;28;20503;-42
2021/07/16 08:40:26;;;;;;;9.95;6.63;;;;;;;;;;5053124;28;20021;-42
2021/07/16 08:42:52;;;;;;;14.43;6.00;;;;;;;;;;5053281;28;20108;-43
2021/07/16 08:45:18;;;;;;;11.85;6.55;;;;;;;;;;5044948;28;20022;-43
2021/07/16 08:47:45;;;;;;;9.50;5.95;;;;;;;;;;5033683;28;20091;-43
2021/07/16 08:50:13;;;;;;;8.48;6.20;;;;;;;;;;5033246;28;20069;-42
2021/07/16 08:52:40;;;;;;;14.02;6.30;;;;;;;;;;5033717;28;20056;-43
2021/07/16 08:55:07;;;;;;;11.30;6.50;;;;;;;;;;5033272;28;20113;-43
2021/07/16 08:57:33;;;;;;;41.92;29.00;;;;;;;;;;5033373;28;20017;-43
2021/07/16 09:00:00;;;;;;;14.45;8.63;;;;;;;;;;5033340;28;20390;-42
2021/07/16 09:02:31;;;;;;;12.88;6.65;;;;;;;;;;5033561;28;20026;-41
2021/07/16 09:05:01;;;;;;;13.75;7.05;;;;;;;;;;5033115;28;20441;-42
2021/07/16 09:07:28;;;;;;;17.30;8.33;;;;;;;;;;5033300;28;20100;-41
2021/07/16 09:10:11;;;;;;;47.83;27.35;;;;;;;;;;5033058;28;20156;-42
2021/07/16 09:12:38;;;;;;;28.00;21.27;;;;;;;;;;5033185;28;20034;-42
2021/07/16 09:15:11;;;;;;;31.23;24.13;;;;;;;;;;5039285;28;20045;-43
2021/07/16 09:17:42;;;;;;;11.52;6.30;;;;;;;;;;5053053;28;20531;-42
2021/07/16 09:20:08;;;;;;;;;;;;;;;;;;5053640;28;20032;-42
2021/07/16 09:22:36;;;;;;;10.07;6.88;;;;;;;;;;5053153;28;19904;-42
2021/07/16 09:25:04;;;;;;;16.95;10.93;;;;;;;;;;5053024;28;20104;-41
2021/07/16 09:27:40;;;;;;;11.98;7.28;;;;;;;;;;5052920;28;20060;-42
2021/07/16 09:30:13;;;;;;;68.05;20.90;;;;;;;;;;5052849;28;20029;-43
2021/07/16 09:32:40;;;;;;;19.75;9.45;;;;;;;;;;5053243;28;20516;-43
2021/07/16 09:35:06;;;;;;;11.48;6.28;;;;;;;;;;5053065;28;20032;-43
2021/07/16 09:37:33;;;;;;;13.65;7.20;;;;;;;;;;5053075;28;20025;-42
2021/07/16 09:39:59;;;;;;;9.60;7.20;;;;;;;;;;5053007;28;20021;-42
2021/07/16 09:42:26;;;;;;;10.68;6.28;;;;;;;;;;5053048;28;20025;-43
2021/07/16 09:44:59;;;;;;;11.07;5.63;;;;;;;;;;5052808;28;20056;-44
2021/07/16 09:47:29;;;;;;;14.52;6.22;;;;;;;;;;5053120;28;20389;-43
2021/07/16 09:50:07;;;;;;;12.73;5.35;;;;;;;;;;5053053;28;20037;-47
2021/07/16 09:52:33;;;;;;;10.98;5.45;;;;;;;;;;5052963;28;20032;-43
2021/07/16 09:55:14;;;;;;;9.85;5.38;;;;;;;;;;5052850;28;20025;-42
2021/07/16 09:57:40;;;;;;;13.77;8.15;;;;;;;;;;5052908;28;20492;-43
2021/07/16 10:00:13;;;;;;;15.10;7.57;;;;;;;;;;5052864;28;20468;-43
2021/07/16 10:02:39;;;;;;;12.43;5.70;;;;;;;;;;5052747;28;20472;-43
2021/07/16 10:05:06;;;;;;;10.57;4.90;;;;;;;;;;5052989;28;20025;-43
2021/07/16 10:07:33;;;;;;;8.63;5.20;;;;;;;;;;5052885;28;20480;-43
2021/07/16 10:09:59;;;;;;;6.68;4.78;;;;;;;;;;5056132;28;20495;-44
2021/07/16 10:12:26;;;;;;;8.60;4.50;;;;;;;;;;5056571;28;20104;-43
2021/07/16 10:14:52;;;;;;;7.60;4.90;;;;;;;;;;5056166;28;20052;-43
2021/07/16 10:17:18;;;;;;;8.65;5.35;;;;;;;;;;5056320;28;20029;-43
2021/07/16 10:19:44;;;;;;;6.93;5.13;;;;;;;;;;5056142;28;20052;-44
2021/07/16 10:22:11;;;;;;;6.60;4.88;;;;;;;;;;5056359;28;20052;-43
2021/07/16 10:24:38;;;;;;;11.77;5.25;;;;;;;;;;5056157;28;20021;-43
2021/07/16 10:27:05;;;;;;;10.85;5.18;;;;;;;;;;5054680;28;20021;-44
2021/07/16 10:29:39;;;;;;;8.95;4.95;;;;;;;;;;5056055;28;20025;-43
2021/07/16 10:32:08;;;;;;;11.98;4.95;;;;;;;;;;5056513;28;20087;-43
2021/07/16 10:34:36;;;;;;;6.20;4.70;;;;;;;;;;5056411;28;20014;-43
2021/07/16 10:37:04;;;;;;;8.00;5.07;;;;;;;;;;5056225;28;20025;-43
2021/07/16 10:39:50;;;;;;;9.68;5.18;;;;;;;;;;5055837;28;20493;-43
2021/07/16 10:42:29;;;;;;;7.35;5.78;;;;;;;;;;5055926;28;20032;-42
2021/07/16 10:44:58;;;;;;;6.15;5.00;;;;;;;;;;5055947;28;20071;-43
2021/07/16 10:47:39;;;;;;;9.00;5.13;;;;;;;;;;5055988;28;20028;-43
2021/07/16 10:50:09;;;;;;;7.40;4.78;;;;;;;;;;5055536;28;20033;-42
2021/07/16 10:52:46;;;;;;;8.20;4.72;;;;;;;;;;5055644;28;20087;-43
2021/07/16 10:55:13;;;;;;;5.47;4.82;;;;;;;;;;5055732;28;20074;-42
2021/07/16 10:57:41;;;;;;;7.57;4.47;;;;;;;;;;5055601;28;20552;-44
2021/07/16 11:00:34;;;;;;;6.80;5.07;;;;;;;;;;5055501;28;20028;-43
2021/07/16 11:03:13;;;;;;;10.27;5.30;;;;;;;;;;5054322;28;20427;-43
2021/07/16 11:05:39;;;;;;;11.00;4.03;;;;;;;;;;5055965;28;20025;-44
2021/07/16 11:08:24;;;;;;;6.60;4.30;;;;;;;;;;5055517;28;20017;-44
2021/07/16 11:10:51;;;;;;;8.65;4.35;;;;;;;;;;5055392;28;20500;-43
2021/07/16 11:13:36;;;;;;;5.85;4.13;;;;;;;;;;5055113;28;20021;-44
2021/07/16 11:16:32;;;;;;;11.23;4.05;;;;;;;;;;5055148;28;20053;-43
2021/07/16 11:18:59;;;;;;;6.95;4.20;;;;;;;;;;5054999;28;20033;-44
2021/07/16 11:21:41;;;;;;;6.45;4.03;;;;;;;;;;5054174;28;20519;-44
2021/07/16 11:24:07;;;;;;;8.48;4.40;;;;;;;;;;5055014;28;20032;-44
2021/07/16 11:26:35;;;;;;;6.28;3.78;;;;;;;;;;5055171;28;20366;-43
2021/07/16 11:29:01;;;;;;;7.10;3.80;;;;;;;;;;5054907;28;20025;-43
2021/07/16 11:31:27;;;;;;;5.35;3.85;;;;;;;;;;5055096;28;20053;-43
2021/07/16 11:33:57;;;;;;;4.35;3.70;;;;;;;;;;5054946;28;20031;-44
2021/07/16 11:36:23;;;;;;;6.53;3.83;;;;;;;;;;5054671;28;20116;-44
2021/07/16 11:38:53;;;;;;;8.55;3.78;;;;;;;;;;5054836;28;20522;-43
2021/07/16 11:41:28;;;;;;;7.88;3.75;;;;;;;;;;5054818;28;20519;-44
2021/07/16 11:43:55;;;;;;;6.75;3.72;;;;;;;;;;5054666;28;20033;-43
2021/07/16 11:46:30;;;;;;;7.20;4.00;;;;;;;;;;5054641;28;20033;-44
2021/07/16 11:48:57;;;;;;;6.60;3.63;;;;;;;;;;5054617;28;20025;-43
2021/07/16 11:51:27;;;;;;;8.93;3.33;;;;;;;;;;5055086;28;20025;-43
2021/07/16 11:53:53;;;;;;;12.80;3.63;;;;;;;;;;5054665;28;20021;-42
2021/07/16 11:56:19;;;;;;;4.78;3.47;;;;;;;;;;5054300;28;20262;-42
2021/07/16 11:58:49;;;;;;;4.60;3.38;;;;;;;;;;5054443;28;20028;-42
2021/07/16 12:01:17;;;;;;;6.90;3.85;;;;;;;;;;5054556;28;20025;-43
2021/07/16 12:03:43;;;;;;;5.80;3.80;;;;;;;;;;5054339;28;20037;-43
2021/07/16 12:06:09;;;;;;;4.95;3.20;;;;;;;;;;5054434;28;20017;-42
2021/07/16 12:08:38;;;;;;;4.18;3.58;;;;;;;;;;5054131;28;20078;-43
2021/07/16 12:11:05;;;;;;;6.75;3.67;;;;;;;;;;5054001;28;20358;-43
2021/07/16 12:13:32;;;;;;;5.35;3.47;;;;;;;;;;5054269;28;20048;-42
2021/07/16 12:16:02;;;;;;;8.52;3.72;;;;;;;;;;5054105;28;20049;-43
2021/07/16 12:18:29;;;;;;;5.47;3.17;;;;;;;;;;5054250;28;20033;-43
2021/07/16 12:20:56;;;;;;;6.78;3.40;;;;;;;;;;5054255;28;20017;-43
2021/07/16 12:23:23;;;;;;;5.45;3.30;;;;;;;;;;5052177;28;20021;-42
2021/07/16 12:25:49;;;;;;;7.20;4.97;;;;;;;;;;5053708;28;20032;-43
2021/07/16 12:28:20;;;;;;;18.98;13.93;;;;;;;;;;5049223;28;20359;-42
2021/07/16 12:30:47;;;;;;;7.18;4.18;;;;;;;;;;5033300;28;20042;-42
2021/07/16 12:33:14;;;;;;;6.70;3.90;;;;;;;;;;5033708;28;20485;-41
2021/07/16 12:35:41;;;;;;;5.57;3.30;;;;;;;;;;5033774;28;20090;-42
2021/07/16 12:38:09;;;;;;;5.43;3.22;;;;;;;;;;5033960;28;20024;-42
2021/07/16 12:40:36;;;;;;;8.07;3.10;;;;;;;;;;5033618;28;20026;-43
2021/07/16 12:43:15;;;;;;;5.05;3.30;;;;;;;;;;5033561;28;20021;-44
2021/07/16 12:45:41;;;;;;;3.63;3.10;;;;;;;;;;5033869;28;20385;-43
2021/07/16 12:48:12;;;;;;;15.77;12.43;;;;;;;;;;5033685;28;20029;-43
2021/07/16 12:50:38;;;;;;;13.02;8.55;;;;;;;;;;5033592;28;20037;-43
2021/07/16 12:53:05;;;;;;;31.42;18.60;;;;;;;;;;5033397;28;20026;-43
2021/07/16 12:55:32;;;;;;;7.45;4.07;;;;;;;;;;5033581;28;20032;-43
2021/07/16 12:58:03;;;;;;;18.15;11.82;;;;;;;;;;5035283;28;20100;-42
2021/07/16 13:00:29;;;;;;;18.65;12.35;;;;;;;;;;5053460;28;20025;-43
2021/07/16 13:03:15;;;;;;;8.90;7.00;;;;;;;;;;5053021;28;20025;-43
2021/07/16 13:05:42;;;;;;;5.85;4.20;;;;;;;;;;5053080;28;20024;-43
2021/07/16 13:08:17;;;;;;;7.20;4.78;;;;;;;;;;5053349;28;20108;-43
2021/07/16 13:10:48;;;;;;;8.05;3.92;;;;;;;;;;5052938;28;20042;-43
2021/07/16 13:13:14;;;;;;;;;;;;;;;;;;5053747;28;20021;-43
2021/07/16 13:15:40;;;;;;;12.05;8.75;;;;;;;;;;5052868;28;20005;-43
2021/07/16 13:18:07;;;;;;;4.45;3.05;;;;;;;;;;5053189;28;20033;-43
2021/07/16 13:20:33;;;;;;;17.13;11.38;;;;;;;;;;5053113;28;20025;-43
2021/07/16 13:22:59;;;;;;;7.75;6.47;;;;;;;;;;5053167;28;20595;-43
2021/07/16 13:25:25;;;;;;;61.55;29.30;;;;;;;;;;5053142;28;20021;-43
2021/07/16 13:27:51;;;;;;;27.48;14.23;;;;;;;;;;5052586;28;20021;-42
2021/07/16 13:30:17;;;;;;;8.70;4.20;;;;;;;;;;5052630;28;20033;-43
2021/07/16 13:32:46;;;;;;;6.22;3.70;;;;;;;;;;5052434;28;20044;-42
2021/07/16 13:35:12;;;;;;;13.88;10.70;;;;;;;;;;5052686;28;20047;-42
2021/07/16 13:37:40;;;;;;;5.88;4.28;;;;;;;;;;5039399;28;20017;-42
2021/07/16 13:40:07;;;;;;;8.18;4.10;;;;;;;;;;5032953;28;20435;-42
2021/07/16 13:42:36;;;;;;;5.85;3.33;;;;;;;;;;5033067;28;20021;-42
2021/07/16 13:45:02;;;;;;;4.15;3.30;;;;;;;;;;5036615;28;20025;-42
2021/07/16 13:47:28;;;;;;;7.05;5.40;;;;;;;;;;5037120;28;20036;-43
2021/07/16 13:49:54;;;;;;;7.25;5.22;;;;;;;;;;5036721;28;20036;-43
2021/07/16 13:52:20;;;;;;;3.30;2.90;;;;;;;;;;5036835;28;20505;-44
2021/07/16 13:54:46;;;;;;;6.20;3.85;;;;;;;;;;5036577;28;20029;-44
2021/07/16 13:57:14;;;;;;;5.97;4.25;;;;;;;;;;5036589;28;20029;-45
2021/07/16 13:59:40;;;;;;;6.20;5.10;;;;;;;;;;5036770;28;20018;-43
2021/07/16 14:02:06;;;;;;;8.48;6.28;;;;;;;;;;5036532;28;20033;-44
2021/07/16 14:04:32;;;;;;;10.65;6.00;;;;;;;;;;5036676;28;20393;-42
2021/07/16 14:06:58;;;;;;;6.97;4.22;;;;;;;;;;5028304;28;20060;-42
2021/07/16 14:09:24;;;;;;;6.82;4.63;;;;;;;;;;5024414;28;20400;-42
2021/07/16 14:11:54;;;;;;;8.23;4.68;;;;;;;;;;5024223;28;20121;-43
2021/07/16 14:14:20;;;;;;;6.25;5.35;;;;;;;;;;5024960;28;20052;-43
2021/07/16 14:16:47;;;;;;;8.13;4.53;;;;;;;;;;5023861;28;20621;-43
2021/07/16 14:19:13;;;;;;;10.13;5.05;;;;;;;;;;5023839;28;20028;-42
2021/07/16 14:21:39;;;;;;;14.88;5.13;;;;;;;;;;5023916;28;20025;-43
2021/07/16 14:24:05;;;;;;;8.57;4.25;;;;;;;;;;5023902;28;20586;-43
2021/07/16 14:26:32;;;;;;;5.47;4.18;;;;;;;;;;5023411;28;20030;-43
2021/07/16 14:28:58;;;;;;;5.50;3.83;;;;;;;;;;5024074;28;20071;-42
2021/07/16 14:31:25;;;;;;;8.48;3.30;;;;;;;;;;5023520;28;20407;-44
2021/07/16 14:33:51;;;;;;;3.47;3.17;;;;;;;;;;5023458;28;20029;-41
2021/07/16 14:36:17;;;;;;;5.15;3.13;;;;;;;;;;5023643;28;20030;-41